Aviation Digital Data Service (ADDS)

Output produced by METARs form (1255 UTC 19 December 2014)
found at http://aviationweather.gov/adds/metars/
 
KEWR 191122Z 1912/2018 31012G18KT P6SM BKN035 
     FM192100 32008KT P6SM SCT035 
     FM200500 35005KT P6SM SCT035 
     FM201500 02006KT P6SM SCT035